sensor_id;sensor_type;location;lat;lon;timestamp;temperature;humidity
69543;SHT31;56762;49.494;11.768;2023-08-30T00:02:21;14.66;89.80
69543;SHT31;56762;49.494;11.768;2023-08-30T00:04:49;14.67;89.92
69543;SHT31;56762;49.494;11.768;2023-08-30T00:07:17;14.67;89.50
69543;SHT31;56762;49.494;11.768;2023-08-30T00:09:45;14.66;89.35
69543;SHT31;56762;49.494;11.768;2023-08-30T00:12:13;14.65;89.49
69543;SHT31;56762;49.494;11.768;2023-08-30T00:14:41;14.62;89.33
69543;SHT31;56762;49.494;11.768;2023-08-30T00:17:09;14.59;89.65
69543;SHT31;56762;49.494;11.768;2023-08-30T00:19:38;14.60;89.61
69543;SHT31;56762;49.494;11.768;2023-08-30T00:22:06;14.59;89.41
69543;SHT31;56762;49.494;11.768;2023-08-30T00:24:34;14.56;89.13
69543;SHT31;56762;49.494;11.768;2023-08-30T00:27:04;14.55;89.19
69543;SHT31;56762;49.494;11.768;2023-08-30T00:29:32;14.52;89.20
69543;SHT31;56762;49.494;11.768;2023-08-30T00:31:59;14.50;89.18
69543;SHT31;56762;49.494;11.768;2023-08-30T00:34:27;14.50;88.75
69543;SHT31;56762;49.494;11.768;2023-08-30T00:36:56;14.48;88.64
69543;SHT31;56762;49.494;11.768;2023-08-30T00:39:25;14.46;88.71
69543;SHT31;56762;49.494;11.768;2023-08-30T00:41:52;14.43;88.67
69543;SHT31;56762;49.494;11.768;2023-08-30T00:44:21;14.45;88.80
69543;SHT31;56762;49.494;11.768;2023-08-30T00:46:48;14.42;88.94
69543;SHT31;56762;49.494;11.768;2023-08-30T00:49:16;14.39;88.91
69543;SHT31;56762;49.494;11.768;2023-08-30T00:51:44;14.42;89.03
69543;SHT31;56762;49.494;11.768;2023-08-30T00:54:13;14.39;89.16
69543;SHT31;56762;49.494;11.768;2023-08-30T00:56:43;14.40;89.22
69543;SHT31;56762;49.494;11.768;2023-08-30T00:59:11;14.38;89.02
69543;SHT31;56762;49.494;11.768;2023-08-30T01:01:40;14.36;89.05
69543;SHT31;56762;49.494;11.768;2023-08-30T01:04:08;14.38;89.12
69543;SHT31;56762;49.494;11.768;2023-08-30T01:06:36;14.33;89.28
69543;SHT31;56762;49.494;11.768;2023-08-30T01:09:04;14.36;89.53
69543;SHT31;56762;49.494;11.768;2023-08-30T01:11:36;14.32;89.62
69543;SHT31;56762;49.494;11.768;2023-08-30T01:14:09;14.35;89.72
69543;SHT31;56762;49.494;11.768;2023-08-30T01:16:40;14.36;89.77
69543;SHT31;56762;49.494;11.768;2023-08-30T01:19:25;14.33;89.39
69543;SHT31;56762;49.494;11.768;2023-08-30T01:22:00;14.30;89.20
69543;SHT31;56762;49.494;11.768;2023-08-30T01:24:37;14.30;89.25
69543;SHT31;56762;49.494;11.768;2023-08-30T01:27:11;14.32;89.28
69543;SHT31;56762;49.494;11.768;2023-08-30T01:29:42;14.28;89.58
69543;SHT31;56762;49.494;11.768;2023-08-30T01:35:53;14.26;89.14
69543;SHT31;56762;49.494;11.768;2023-08-30T01:38:23;14.28;89.54
69543;SHT31;56762;49.494;11.768;2023-08-30T01:40:51;14.26;89.43
69543;SHT31;56762;49.494;11.768;2023-08-30T01:43:22;14.24;89.07
69543;SHT31;56762;49.494;11.768;2023-08-30T01:45:52;14.19;89.22
69543;SHT31;56762;49.494;11.768;2023-08-30T01:48:23;14.22;89.23
69543;SHT31;56762;49.494;11.768;2023-08-30T01:50:51;14.21;89.61
69543;SHT31;56762;49.494;11.768;2023-08-30T01:53:21;14.19;89.75
69543;SHT31;56762;49.494;11.768;2023-08-30T01:55:50;14.22;89.79
69543;SHT31;56762;49.494;11.768;2023-08-30T01:58:18;14.22;89.76
69543;SHT31;56762;49.494;11.768;2023-08-30T02:00:47;14.24;89.75
69543;SHT31;56762;49.494;11.768;2023-08-30T02:03:15;14.25;90.10
69543;SHT31;56762;49.494;11.768;2023-08-30T02:05:52;14.22;89.70
69543;SHT31;56762;49.494;11.768;2023-08-30T02:08:26;14.25;89.89
69543;SHT31;56762;49.494;11.768;2023-08-30T02:11:02;14.26;89.96
69543;SHT31;56762;49.494;11.768;2023-08-30T02:13:33;14.24;89.98
69543;SHT31;56762;49.494;11.768;2023-08-30T02:16:04;14.24;90.05
69543;SHT31;56762;49.494;11.768;2023-08-30T02:18:33;14.24;90.12
69543;SHT31;56762;49.494;11.768;2023-08-30T02:21:02;14.24;89.85
69543;SHT31;56762;49.494;11.768;2023-08-30T02:23:32;14.24;89.77
69543;SHT31;56762;49.494;11.768;2023-08-30T02:26:00;14.22;89.77
69543;SHT31;56762;49.494;11.768;2023-08-30T02:28:29;14.24;89.92
69543;SHT31;56762;49.494;11.768;2023-08-30T02:30:57;14.25;90.00
69543;SHT31;56762;49.494;11.768;2023-08-30T02:33:28;14.25;89.92
69543;SHT31;56762;49.494;11.768;2023-08-30T02:35:56;14.22;89.81
69543;SHT31;56762;49.494;11.768;2023-08-30T02:38:23;14.24;89.98
69543;SHT31;56762;49.494;11.768;2023-08-30T02:40:52;14.24;89.76
69543;SHT31;56762;49.494;11.768;2023-08-30T02:43:19;14.21;89.91
69543;SHT31;56762;49.494;11.768;2023-08-30T02:45:51;14.19;89.75
69543;SHT31;56762;49.494;11.768;2023-08-30T02:48:20;14.18;89.65
69543;SHT31;56762;49.494;11.768;2023-08-30T02:50:51;14.18;89.67
69543;SHT31;56762;49.494;11.768;2023-08-30T02:53:22;14.18;89.69
69543;SHT31;56762;49.494;11.768;2023-08-30T02:55:51;14.21;89.62
69543;SHT31;56762;49.494;11.768;2023-08-30T02:58:24;14.21;89.62
69543;SHT31;56762;49.494;11.768;2023-08-30T03:01:00;14.21;89.55
69543;SHT31;56762;49.494;11.768;2023-08-30T03:03:29;14.17;89.74
69543;SHT31;56762;49.494;11.768;2023-08-30T03:05:58;14.19;89.87
69543;SHT31;56762;49.494;11.768;2023-08-30T03:08:26;14.21;89.76
69543;SHT31;56762;49.494;11.768;2023-08-30T03:10:54;14.19;89.66
69543;SHT31;56762;49.494;11.768;2023-08-30T03:13:22;14.21;89.56
69543;SHT31;56762;49.494;11.768;2023-08-30T03:15:50;14.18;89.45
69543;SHT31;56762;49.494;11.768;2023-08-30T03:18:18;14.17;89.25
69543;SHT31;56762;49.494;11.768;2023-08-30T03:20:46;14.18;89.29
69543;SHT31;56762;49.494;11.768;2023-08-30T03:23:15;14.17;89.26
69543;SHT31;56762;49.494;11.768;2023-08-30T03:25:43;14.15;89.26
69543;SHT31;56762;49.494;11.768;2023-08-30T03:28:10;14.14;89.22
69543;SHT31;56762;49.494;11.768;2023-08-30T03:30:38;14.14;89.31
69543;SHT31;56762;49.494;11.768;2023-08-30T03:33:06;14.11;89.42
69543;SHT31;56762;49.494;11.768;2023-08-30T03:35:34;14.09;89.37
69543;SHT31;56762;49.494;11.768;2023-08-30T03:38:02;14.09;89.63
69543;SHT31;56762;49.494;11.768;2023-08-30T03:40:32;14.07;89.41
69543;SHT31;56762;49.494;11.768;2023-08-30T03:42:59;14.05;89.28
69543;SHT31;56762;49.494;11.768;2023-08-30T03:45:27;14.07;89.28
69543;SHT31;56762;49.494;11.768;2023-08-30T03:47:55;14.07;89.43
69543;SHT31;56762;49.494;11.768;2023-08-30T03:50:23;14.08;89.34
69543;SHT31;56762;49.494;11.768;2023-08-30T03:52:50;14.04;89.12
69543;SHT31;56762;49.494;11.768;2023-08-30T03:55:18;14.00;88.61
69543;SHT31;56762;49.494;11.768;2023-08-30T03:57:48;13.98;88.95
69543;SHT31;56762;49.494;11.768;2023-08-30T04:00:16;13.95;88.88
69543;SHT31;56762;49.494;11.768;2023-08-30T04:02:44;13.95;88.83
69543;SHT31;56762;49.494;11.768;2023-08-30T04:05:12;13.91;88.52
69543;SHT31;56762;49.494;11.768;2023-08-30T04:07:41;13.89;88.52
69543;SHT31;56762;49.494;11.768;2023-08-30T04:10:09;13.87;89.00
69543;SHT31;56762;49.494;11.768;2023-08-30T04:12:37;13.88;89.26
69543;SHT31;56762;49.494;11.768;2023-08-30T04:15:06;13.88;89.41
69543;SHT31;56762;49.494;11.768;2023-08-30T04:17:35;13.88;89.15
69543;SHT31;56762;49.494;11.768;2023-08-30T04:20:03;13.85;88.94
69543;SHT31;56762;49.494;11.768;2023-08-30T04:22:31;13.82;89.14
69543;SHT31;56762;49.494;11.768;2023-08-30T04:25:01;13.84;89.14
69543;SHT31;56762;49.494;11.768;2023-08-30T04:27:29;13.75;88.52
69543;SHT31;56762;49.494;11.768;2023-08-30T04:29:57;13.75;88.62
69543;SHT31;56762;49.494;11.768;2023-08-30T04:32:26;13.74;88.52
69543;SHT31;56762;49.494;11.768;2023-08-30T04:34:54;13.68;88.50
69543;SHT31;56762;49.494;11.768;2023-08-30T04:37:22;13.71;88.85
69543;SHT31;56762;49.494;11.768;2023-08-30T04:39:49;13.73;89.20
69543;SHT31;56762;49.494;11.768;2023-08-30T04:42:17;13.70;89.13
69543;SHT31;56762;49.494;11.768;2023-08-30T04:44:45;13.68;89.11
69543;SHT31;56762;49.494;11.768;2023-08-30T04:47:13;13.71;88.93
69543;SHT31;56762;49.494;11.768;2023-08-30T04:49:42;13.68;88.86
69543;SHT31;56762;49.494;11.768;2023-08-30T04:52:10;13.68;89.26
69543;SHT31;56762;49.494;11.768;2023-08-30T04:54:38;13.71;89.35
69543;SHT31;56762;49.494;11.768;2023-08-30T04:57:05;13.71;89.18
69543;SHT31;56762;49.494;11.768;2023-08-30T04:59:33;13.77;89.44
69543;SHT31;56762;49.494;11.768;2023-08-30T05:02:01;13.77;89.68
69543;SHT31;56762;49.494;11.768;2023-08-30T05:04:29;13.82;89.61
69543;SHT31;56762;49.494;11.768;2023-08-30T05:06:58;13.85;89.68
69543;SHT31;56762;49.494;11.768;2023-08-30T05:09:26;13.88;89.65
69543;SHT31;56762;49.494;11.768;2023-08-30T05:11:54;13.91;89.59
69543;SHT31;56762;49.494;11.768;2023-08-30T05:14:22;13.97;89.59
69543;SHT31;56762;49.494;11.768;2023-08-30T05:16:50;13.98;89.60
69543;SHT31;56762;49.494;11.768;2023-08-30T05:19:18;14.07;89.45
69543;SHT31;56762;49.494;11.768;2023-08-30T05:21:46;14.12;89.46
69543;SHT31;56762;49.494;11.768;2023-08-30T05:24:19;14.22;89.39
69543;SHT31;56762;49.494;11.768;2023-08-30T05:26:47;14.28;89.34
69543;SHT31;56762;49.494;11.768;2023-08-30T05:29:15;14.38;89.55
69543;SHT31;56762;49.494;11.768;2023-08-30T05:31:43;14.45;89.75
69543;SHT31;56762;49.494;11.768;2023-08-30T05:34:11;14.53;89.52
69543;SHT31;56762;49.494;11.768;2023-08-30T05:36:39;14.62;89.57
69543;SHT31;56762;49.494;11.768;2023-08-30T05:39:07;14.73;89.72
69543;SHT31;56762;49.494;11.768;2023-08-30T05:41:36;14.81;89.45
69543;SHT31;56762;49.494;11.768;2023-08-30T05:44:05;14.96;89.35
69543;SHT31;56762;49.494;11.768;2023-08-30T05:46:33;15.06;88.95
69543;SHT31;56762;49.494;11.768;2023-08-30T05:49:00;15.11;88.10
69543;SHT31;56762;49.494;11.768;2023-08-30T05:51:32;15.12;87.58
69543;SHT31;56762;49.494;11.768;2023-08-30T05:53:59;15.20;87.36
69543;SHT31;56762;49.494;11.768;2023-08-30T05:56:28;15.18;87.62
69543;SHT31;56762;49.494;11.768;2023-08-30T05:58:57;15.20;87.99
69543;SHT31;56762;49.494;11.768;2023-08-30T06:01:25;15.24;88.00
69543;SHT31;56762;49.494;11.768;2023-08-30T06:03:52;15.27;88.06
69543;SHT31;56762;49.494;11.768;2023-08-30T06:06:21;15.30;88.22
69543;SHT31;56762;49.494;11.768;2023-08-30T06:08:49;15.35;88.39
69543;SHT31;56762;49.494;11.768;2023-08-30T06:11:16;15.41;88.50
69543;SHT31;56762;49.494;11.768;2023-08-30T06:13:44;15.48;88.29
69543;SHT31;56762;49.494;11.768;2023-08-30T06:16:13;15.51;87.40
69543;SHT31;56762;49.494;11.768;2023-08-30T06:18:41;15.58;87.66
69543;SHT31;56762;49.494;11.768;2023-08-30T06:21:09;15.62;87.28
69543;SHT31;56762;49.494;11.768;2023-08-30T06:23:38;15.66;87.02
69543;SHT31;56762;49.494;11.768;2023-08-30T06:26:05;15.77;87.35
69543;SHT31;56762;49.494;11.768;2023-08-30T06:28:33;15.89;87.28
69543;SHT31;56762;49.494;11.768;2023-08-30T06:31:04;15.98;87.62
69543;SHT31;56762;49.494;11.768;2023-08-30T06:33:33;16.08;86.69
69543;SHT31;56762;49.494;11.768;2023-08-30T06:36:03;16.13;86.27
69543;SHT31;56762;49.494;11.768;2023-08-30T06:38:31;16.21;85.84
69543;SHT31;56762;49.494;11.768;2023-08-30T06:40:59;16.26;85.90
69543;SHT31;56762;49.494;11.768;2023-08-30T06:43:27;16.31;85.41
69543;SHT31;56762;49.494;11.768;2023-08-30T06:45:57;16.33;84.55
69543;SHT31;56762;49.494;11.768;2023-08-30T06:48:25;16.30;84.36
69543;SHT31;56762;49.494;11.768;2023-08-30T06:50:57;16.30;84.75
69543;SHT31;56762;49.494;11.768;2023-08-30T06:53:25;16.27;83.09
69543;SHT31;56762;49.494;11.768;2023-08-30T06:55:57;16.23;83.15
69543;SHT31;56762;49.494;11.768;2023-08-30T06:58:25;16.21;82.78
69543;SHT31;56762;49.494;11.768;2023-08-30T07:00:53;16.23;83.18
69543;SHT31;56762;49.494;11.768;2023-08-30T07:03:21;16.23;82.80
69543;SHT31;56762;49.494;11.768;2023-08-30T07:05:50;16.24;83.09
69543;SHT31;56762;49.494;11.768;2023-08-30T07:08:20;16.29;83.96
69543;SHT31;56762;49.494;11.768;2023-08-30T07:10:48;16.34;83.86
69543;SHT31;56762;49.494;11.768;2023-08-30T07:13:16;16.37;83.19
69543;SHT31;56762;49.494;11.768;2023-08-30T07:15:43;16.34;82.70
69543;SHT31;56762;49.494;11.768;2023-08-30T07:18:11;16.31;81.46
69543;SHT31;56762;49.494;11.768;2023-08-30T07:20:39;16.29;81.94
69543;SHT31;56762;49.494;11.768;2023-08-30T07:23:07;16.29;82.34
69543;SHT31;56762;49.494;11.768;2023-08-30T07:25:38;16.27;83.08
69543;SHT31;56762;49.494;11.768;2023-08-30T07:28:06;16.29;82.76
69543;SHT31;56762;49.494;11.768;2023-08-30T07:30:34;16.31;83.54
69543;SHT31;56762;49.494;11.768;2023-08-30T07:33:03;16.34;83.87
69543;SHT31;56762;49.494;11.768;2023-08-30T07:35:31;16.37;83.63
69543;SHT31;56762;49.494;11.768;2023-08-30T07:38:00;16.39;82.65
69543;SHT31;56762;49.494;11.768;2023-08-30T07:40:27;16.41;82.30
69543;SHT31;56762;49.494;11.768;2023-08-30T07:42:57;16.43;82.20
69543;SHT31;56762;49.494;11.768;2023-08-30T07:45:25;16.44;81.89
69543;SHT31;56762;49.494;11.768;2023-08-30T07:47:53;16.46;81.49
69543;SHT31;56762;49.494;11.768;2023-08-30T07:50:21;16.48;82.33
69543;SHT31;56762;49.494;11.768;2023-08-30T07:52:49;16.46;82.36
69543;SHT31;56762;49.494;11.768;2023-08-30T07:55:17;16.46;81.43
69543;SHT31;56762;49.494;11.768;2023-08-30T07:57:45;16.40;81.07
69543;SHT31;56762;49.494;11.768;2023-08-30T08:00:14;16.34;81.32
69543;SHT31;56762;49.494;11.768;2023-08-30T08:02:42;16.30;82.04
69543;SHT31;56762;49.494;11.768;2023-08-30T08:05:10;16.29;82.51
69543;SHT31;56762;49.494;11.768;2023-08-30T08:07:38;16.27;82.61
69543;SHT31;56762;49.494;11.768;2023-08-30T08:10:08;16.31;83.60
69543;SHT31;56762;49.494;11.768;2023-08-30T08:12:36;16.34;83.38
69543;SHT31;56762;49.494;11.768;2023-08-30T08:15:05;16.34;83.18
69543;SHT31;56762;49.494;11.768;2023-08-30T08:17:34;16.37;83.21
69543;SHT31;56762;49.494;11.768;2023-08-30T08:20:04;16.39;84.58
69543;SHT31;56762;49.494;11.768;2023-08-30T08:22:33;16.44;83.37
69543;SHT31;56762;49.494;11.768;2023-08-30T08:25:01;16.43;82.76
69543;SHT31;56762;49.494;11.768;2023-08-30T08:27:28;16.47;83.96
69543;SHT31;56762;49.494;11.768;2023-08-30T08:29:57;16.54;84.60
69543;SHT31;56762;49.494;11.768;2023-08-30T08:32:24;16.56;83.38
69543;SHT31;56762;49.494;11.768;2023-08-30T08:34:54;16.58;83.63
69543;SHT31;56762;49.494;11.768;2023-08-30T08:37:21;16.60;83.39
69543;SHT31;56762;49.494;11.768;2023-08-30T08:39:49;16.61;82.42
69543;SHT31;56762;49.494;11.768;2023-08-30T08:42:19;16.65;80.75
69543;SHT31;56762;49.494;11.768;2023-08-30T08:44:47;16.65;80.06
69543;SHT31;56762;49.494;11.768;2023-08-30T08:47:16;16.70;80.30
69543;SHT31;56762;49.494;11.768;2023-08-30T08:49:44;16.71;80.48
69543;SHT31;56762;49.494;11.768;2023-08-30T08:52:13;16.71;80.18
69543;SHT31;56762;49.494;11.768;2023-08-30T08:54:56;16.72;80.06
69543;SHT31;56762;49.494;11.768;2023-08-30T08:57:26;16.74;80.86
69543;SHT31;56762;49.494;11.768;2023-08-30T08:59:56;16.72;79.43
69543;SHT31;56762;49.494;11.768;2023-08-30T09:02:24;16.72;80.09
69543;SHT31;56762;49.494;11.768;2023-08-30T09:04:52;16.70;79.15
69543;SHT31;56762;49.494;11.768;2023-08-30T09:07:24;16.68;79.50
69543;SHT31;56762;49.494;11.768;2023-08-30T09:09:53;16.70;79.76
69543;SHT31;56762;49.494;11.768;2023-08-30T09:12:21;16.71;78.68
69543;SHT31;56762;49.494;11.768;2023-08-30T09:14:53;16.74;75.20
69543;SHT31;56762;49.494;11.768;2023-08-30T09:17:21;16.72;74.69
69543;SHT31;56762;49.494;11.768;2023-08-30T09:19:50;16.74;77.84
69543;SHT31;56762;49.494;11.768;2023-08-30T09:22:17;16.78;79.02
69543;SHT31;56762;49.494;11.768;2023-08-30T09:24:47;16.79;78.18
69543;SHT31;56762;49.494;11.768;2023-08-30T09:27:15;16.79;78.71
69543;SHT31;56762;49.494;11.768;2023-08-30T09:29:44;16.81;77.65
69543;SHT31;56762;49.494;11.768;2023-08-30T09:32:12;16.81;77.49
69543;SHT31;56762;49.494;11.768;2023-08-30T09:34:45;16.87;76.52
69543;SHT31;56762;49.494;11.768;2023-08-30T09:37:20;16.85;77.61
69543;SHT31;56762;49.494;11.768;2023-08-30T09:39:50;16.88;79.11
69543;SHT31;56762;49.494;11.768;2023-08-30T09:42:18;16.89;80.42
69543;SHT31;56762;49.494;11.768;2023-08-30T09:44:46;16.94;82.21
69543;SHT31;56762;49.494;11.768;2023-08-30T09:47:16;16.99;78.91
69543;SHT31;56762;49.494;11.768;2023-08-30T09:49:45;17.07;81.19
69543;SHT31;56762;49.494;11.768;2023-08-30T09:52:15;17.12;78.67
69543;SHT31;56762;49.494;11.768;2023-08-30T09:54:45;17.16;79.10
69543;SHT31;56762;49.494;11.768;2023-08-30T09:57:15;17.20;77.69
69543;SHT31;56762;49.494;11.768;2023-08-30T09:59:44;17.26;76.98
69543;SHT31;56762;49.494;11.768;2023-08-30T10:02:13;17.26;74.53
69543;SHT31;56762;49.494;11.768;2023-08-30T10:04:42;17.30;74.76
69543;SHT31;56762;49.494;11.768;2023-08-30T10:07:11;17.26;73.05
69543;SHT31;56762;49.494;11.768;2023-08-30T10:09:39;17.23;73.21
69543;SHT31;56762;49.494;11.768;2023-08-30T10:12:29;17.22;74.45
69543;SHT31;56762;49.494;11.768;2023-08-30T10:14:59;17.18;74.28
69543;SHT31;56762;49.494;11.768;2023-08-30T10:17:28;17.15;74.94
69543;SHT31;56762;49.494;11.768;2023-08-30T10:19:59;17.08;75.17
69543;SHT31;56762;49.494;11.768;2023-08-30T10:22:30;17.02;75.86
69543;SHT31;56762;49.494;11.768;2023-08-30T10:25:01;16.99;78.08
69543;SHT31;56762;49.494;11.768;2023-08-30T10:27:52;17.01;77.09
69543;SHT31;56762;49.494;11.768;2023-08-30T10:30:21;16.99;75.16
69543;SHT31;56762;49.494;11.768;2023-08-30T10:32:50;17.04;75.62
69543;SHT31;56762;49.494;11.768;2023-08-30T10:35:19;17.07;74.65
69543;SHT31;56762;49.494;11.768;2023-08-30T10:37:55;17.09;73.82
69543;SHT31;56762;49.494;11.768;2023-08-30T10:40:24;17.12;74.15
69543;SHT31;56762;49.494;11.768;2023-08-30T10:43:03;17.14;74.36
69543;SHT31;56762;49.494;11.768;2023-08-30T10:45:31;17.18;75.30
69543;SHT31;56762;49.494;11.768;2023-08-30T10:47:59;17.18;73.97
69543;SHT31;56762;49.494;11.768;2023-08-30T10:50:28;17.19;72.52
69543;SHT31;56762;49.494;11.768;2023-08-30T10:52:57;17.20;70.62
69543;SHT31;56762;49.494;11.768;2023-08-30T10:55:25;17.25;71.95
69543;SHT31;56762;49.494;11.768;2023-08-30T10:58:00;17.30;72.18
69543;SHT31;56762;49.494;11.768;2023-08-30T11:00:31;17.33;72.09
69543;SHT31;56762;49.494;11.768;2023-08-30T11:02:59;17.40;70.47
69543;SHT31;56762;49.494;11.768;2023-08-30T11:05:27;17.43;73.98
69543;SHT31;56762;49.494;11.768;2023-08-30T11:07:55;17.46;72.43
69543;SHT31;56762;49.494;11.768;2023-08-30T11:10:23;17.49;70.55
69543;SHT31;56762;49.494;11.768;2023-08-30T11:12:52;17.49;68.85
69543;SHT31;56762;49.494;11.768;2023-08-30T11:15:20;17.51;68.98
69543;SHT31;56762;49.494;11.768;2023-08-30T11:17:49;17.54;68.68
69543;SHT31;56762;49.494;11.768;2023-08-30T11:20:18;17.54;69.07
69543;SHT31;56762;49.494;11.768;2023-08-30T11:22:48;17.54;70.06
69543;SHT31;56762;49.494;11.768;2023-08-30T11:25:16;17.54;70.71
69543;SHT31;56762;49.494;11.768;2023-08-30T11:27:44;17.56;70.45
69543;SHT31;56762;49.494;11.768;2023-08-30T11:30:12;17.54;72.81
69543;SHT31;56762;49.494;11.768;2023-08-30T11:32:41;17.51;70.32
69543;SHT31;56762;49.494;11.768;2023-08-30T11:35:11;17.53;68.97
69543;SHT31;56762;49.494;11.768;2023-08-30T11:37:40;17.54;68.64
69543;SHT31;56762;49.494;11.768;2023-08-30T11:40:09;17.56;68.10
69543;SHT31;56762;49.494;11.768;2023-08-30T11:42:39;17.60;67.10
69543;SHT31;56762;49.494;11.768;2023-08-30T11:45:08;17.60;66.26
69543;SHT31;56762;49.494;11.768;2023-08-30T11:47:36;17.63;70.51
69543;SHT31;56762;49.494;11.768;2023-08-30T11:50:04;17.63;72.64
69543;SHT31;56762;49.494;11.768;2023-08-30T11:52:37;17.67;73.76
69543;SHT31;56762;49.494;11.768;2023-08-30T11:55:07;17.73;74.25
69543;SHT31;56762;49.494;11.768;2023-08-30T11:57:35;17.79;75.24
69543;SHT31;56762;49.494;11.768;2023-08-30T12:00:08;17.83;74.66
69543;SHT31;56762;49.494;11.768;2023-08-30T12:02:36;17.84;72.23
69543;SHT31;56762;49.494;11.768;2023-08-30T12:05:04;17.89;71.38
69543;SHT31;56762;49.494;11.768;2023-08-30T12:07:33;17.91;72.99
69543;SHT31;56762;49.494;11.768;2023-08-30T12:10:05;17.97;70.21
69543;SHT31;56762;49.494;11.768;2023-08-30T12:12:34;17.97;68.99
69543;SHT31;56762;49.494;11.768;2023-08-30T12:15:07;18.00;70.48
69543;SHT31;56762;49.494;11.768;2023-08-30T12:17:36;18.01;71.36
69543;SHT31;56762;49.494;11.768;2023-08-30T12:20:04;18.02;72.71
69543;SHT31;56762;49.494;11.768;2023-08-30T12:22:39;18.04;74.20
69543;SHT31;56762;49.494;11.768;2023-08-30T12:25:17;18.05;74.31
69543;SHT31;56762;49.494;11.768;2023-08-30T12:27:45;18.04;72.42
69543;SHT31;56762;49.494;11.768;2023-08-30T12:30:13;18.04;73.35
69543;SHT31;56762;49.494;11.768;2023-08-30T12:32:43;18.08;72.63
69543;SHT31;56762;49.494;11.768;2023-08-30T12:35:11;18.08;73.97
69543;SHT31;56762;49.494;11.768;2023-08-30T12:37:39;18.10;74.28
69543;SHT31;56762;49.494;11.768;2023-08-30T12:40:08;18.12;74.38
69543;SHT31;56762;49.494;11.768;2023-08-30T12:42:37;18.15;73.75
69543;SHT31;56762;49.494;11.768;2023-08-30T12:45:06;18.20;71.44
69543;SHT31;56762;49.494;11.768;2023-08-30T12:47:34;18.22;71.67
69543;SHT31;56762;49.494;11.768;2023-08-30T12:50:03;18.27;73.53
69543;SHT31;56762;49.494;11.768;2023-08-30T12:52:31;18.29;72.47
69543;SHT31;56762;49.494;11.768;2023-08-30T12:54:59;18.32;73.14
69543;SHT31;56762;49.494;11.768;2023-08-30T12:57:26;18.32;71.73
69543;SHT31;56762;49.494;11.768;2023-08-30T12:59:56;18.38;70.19
69543;SHT31;56762;49.494;11.768;2023-08-30T13:02:23;18.38;71.72
69543;SHT31;56762;49.494;11.768;2023-08-30T13:04:51;18.39;73.66
69543;SHT31;56762;49.494;11.768;2023-08-30T13:07:19;18.38;73.86
69543;SHT31;56762;49.494;11.768;2023-08-30T13:09:47;18.37;74.14
69543;SHT31;56762;49.494;11.768;2023-08-30T13:12:15;18.34;69.51
69543;SHT31;56762;49.494;11.768;2023-08-30T13:14:43;18.29;69.09
69543;SHT31;56762;49.494;11.768;2023-08-30T13:17:12;18.27;71.68
69543;SHT31;56762;49.494;11.768;2023-08-30T13:19:40;18.28;74.14
69543;SHT31;56762;49.494;11.768;2023-08-30T13:22:08;18.27;74.45
69543;SHT31;56762;49.494;11.768;2023-08-30T13:24:36;18.29;72.52
69543;SHT31;56762;49.494;11.768;2023-08-30T13:27:04;18.32;70.82
69543;SHT31;56762;49.494;11.768;2023-08-30T13:29:33;18.37;68.57
69543;SHT31;56762;49.494;11.768;2023-08-30T13:32:00;18.35;68.82
69543;SHT31;56762;49.494;11.768;2023-08-30T13:34:30;18.39;68.34
69543;SHT31;56762;49.494;11.768;2023-08-30T13:36:58;18.41;69.41
69543;SHT31;56762;49.494;11.768;2023-08-30T13:39:26;18.39;69.49
69543;SHT31;56762;49.494;11.768;2023-08-30T13:41:53;18.38;68.72
69543;SHT31;56762;49.494;11.768;2023-08-30T13:44:21;18.34;68.93
69543;SHT31;56762;49.494;11.768;2023-08-30T13:46:49;18.32;70.19
69543;SHT31;56762;49.494;11.768;2023-08-30T13:49:17;18.31;70.48
69543;SHT31;56762;49.494;11.768;2023-08-30T13:51:47;18.34;69.23
69543;SHT31;56762;49.494;11.768;2023-08-30T13:54:14;18.29;68.99
69543;SHT31;56762;49.494;11.768;2023-08-30T13:56:42;18.29;69.09
69543;SHT31;56762;49.494;11.768;2023-08-30T13:59:10;18.29;70.06
69543;SHT31;56762;49.494;11.768;2023-08-30T14:01:39;18.28;70.53
69543;SHT31;56762;49.494;11.768;2023-08-30T14:04:07;18.31;70.74
69543;SHT31;56762;49.494;11.768;2023-08-30T14:06:35;18.29;73.88
69543;SHT31;56762;49.494;11.768;2023-08-30T14:09:04;18.27;70.44
69543;SHT31;56762;49.494;11.768;2023-08-30T14:11:35;18.27;68.86
69543;SHT31;56762;49.494;11.768;2023-08-30T14:14:04;18.25;70.01
69543;SHT31;56762;49.494;11.768;2023-08-30T14:16:32;18.25;72.07
69543;SHT31;56762;49.494;11.768;2023-08-30T14:19:00;18.25;72.29
69543;SHT31;56762;49.494;11.768;2023-08-30T14:21:32;18.22;71.82
69543;SHT31;56762;49.494;11.768;2023-08-30T14:24:00;18.21;73.20
69543;SHT31;56762;49.494;11.768;2023-08-30T14:26:29;18.21;72.42
69543;SHT31;56762;49.494;11.768;2023-08-30T14:28:57;18.18;72.30
69543;SHT31;56762;49.494;11.768;2023-08-30T14:31:25;18.18;72.14
69543;SHT31;56762;49.494;11.768;2023-08-30T14:33:54;18.20;75.34
69543;SHT31;56762;49.494;11.768;2023-08-30T14:36:24;18.18;73.60
69543;SHT31;56762;49.494;11.768;2023-08-30T14:38:51;18.18;71.46
69543;SHT31;56762;49.494;11.768;2023-08-30T14:41:20;18.18;71.52
69543;SHT31;56762;49.494;11.768;2023-08-30T14:43:49;18.20;69.57
69543;SHT31;56762;49.494;11.768;2023-08-30T14:46:17;18.21;69.08
69543;SHT31;56762;49.494;11.768;2023-08-30T14:48:50;18.21;69.92
69543;SHT31;56762;49.494;11.768;2023-08-30T14:51:18;18.21;70.59
69543;SHT31;56762;49.494;11.768;2023-08-30T14:53:46;18.21;70.94
69543;SHT31;56762;49.494;11.768;2023-08-30T14:56:17;18.21;73.34
69543;SHT31;56762;49.494;11.768;2023-08-30T14:58:45;18.21;71.82
69543;SHT31;56762;49.494;11.768;2023-08-30T15:01:17;18.18;71.39
69543;SHT31;56762;49.494;11.768;2023-08-30T15:03:45;18.18;71.79
69543;SHT31;56762;49.494;11.768;2023-08-30T15:06:13;18.17;73.72
69543;SHT31;56762;49.494;11.768;2023-08-30T15:08:41;18.14;71.67
69543;SHT31;56762;49.494;11.768;2023-08-30T15:11:09;18.11;72.25
69543;SHT31;56762;49.494;11.768;2023-08-30T15:13:37;18.12;73.57
69543;SHT31;56762;49.494;11.768;2023-08-30T15:16:05;18.14;75.08
69543;SHT31;56762;49.494;11.768;2023-08-30T15:18:34;18.11;75.46
69543;SHT31;56762;49.494;11.768;2023-08-30T15:21:02;18.11;75.36
69543;SHT31;56762;49.494;11.768;2023-08-30T15:23:30;18.15;73.51
69543;SHT31;56762;49.494;11.768;2023-08-30T15:25:58;18.15;71.22
69543;SHT31;56762;49.494;11.768;2023-08-30T15:28:26;18.18;71.52
69543;SHT31;56762;49.494;11.768;2023-08-30T15:30:54;18.17;73.64